sensor_id;sensor_type;location;lat;lon;timestamp;P1;durP1;ratioP1;P2;durP2;ratioP2
39848;SDS011;25518;47.878;15.914;2024-03-22T00:00:28;5.13;;;2.45;;
39848;SDS011;25518;47.878;15.914;2024-03-22T00:03:19;5.15;;;2.95;;
39848;SDS011;25518;47.878;15.914;2024-03-22T00:06:11;4.57;;;2.40;;
39848;SDS011;25518;47.878;15.914;2024-03-22T00:09:03;5.35;;;2.90;;
39848;SDS011;25518;47.878;15.914;2024-03-22T00:11:54;4.57;;;2.70;;
39848;SDS011;25518;47.878;15.914;2024-03-22T00:14:46;6.35;;;2.97;;
39848;SDS011;25518;47.878;15.914;2024-03-22T00:17:38;5.85;;;3.22;;
39848;SDS011;25518;47.878;15.914;2024-03-22T00:20:30;5.53;;;2.83;;
39848;SDS011;25518;47.878;15.914;2024-03-22T00:23:21;4.82;;;2.50;;
39848;SDS011;25518;47.878;15.914;2024-03-22T00:26:13;5.32;;;2.65;;
39848;SDS011;25518;47.878;15.914;2024-03-22T00:29:05;5.63;;;2.65;;
39848;SDS011;25518;47.878;15.914;2024-03-22T00:31:57;5.55;;;3.28;;
39848;SDS011;25518;47.878;15.914;2024-03-22T00:34:49;5.75;;;3.50;;
39848;SDS011;25518;47.878;15.914;2024-03-22T00:37:40;11.13;;;3.60;;
39848;SDS011;25518;47.878;15.914;2024-03-22T00:40:32;7.75;;;3.53;;
39848;SDS011;25518;47.878;15.914;2024-03-22T00:43:24;6.73;;;3.37;;
39848;SDS011;25518;47.878;15.914;2024-03-22T00:46:16;6.00;;;3.58;;
39848;SDS011;25518;47.878;15.914;2024-03-22T00:49:07;5.28;;;3.03;;
39848;SDS011;25518;47.878;15.914;2024-03-22T00:51:59;6.13;;;3.13;;
39848;SDS011;25518;47.878;15.914;2024-03-22T00:54:51;6.28;;;3.42;;
39848;SDS011;25518;47.878;15.914;2024-03-22T00:57:42;7.97;;;3.70;;
39848;SDS011;25518;47.878;15.914;2024-03-22T01:00:34;5.65;;;3.00;;
39848;SDS011;25518;47.878;15.914;2024-03-22T01:03:28;5.53;;;2.67;;
39848;SDS011;25518;47.878;15.914;2024-03-22T01:06:20;5.50;;;3.42;;
39848;SDS011;25518;47.878;15.914;2024-03-22T01:09:15;5.03;;;3.60;;
39848;SDS011;25518;47.878;15.914;2024-03-22T01:12:07;7.60;;;3.65;;
39848;SDS011;25518;47.878;15.914;2024-03-22T01:14:58;6.67;;;3.77;;
39848;SDS011;25518;47.878;15.914;2024-03-22T01:17:50;8.60;;;3.53;;
39848;SDS011;25518;47.878;15.914;2024-03-22T01:20:42;5.57;;;3.55;;
39848;SDS011;25518;47.878;15.914;2024-03-22T01:23:34;7.18;;;3.40;;
39848;SDS011;25518;47.878;15.914;2024-03-22T01:26:26;7.05;;;3.40;;
39848;SDS011;25518;47.878;15.914;2024-03-22T01:29:18;5.80;;;3.60;;
39848;SDS011;25518;47.878;15.914;2024-03-22T01:32:09;8.02;;;4.13;;
39848;SDS011;25518;47.878;15.914;2024-03-22T01:35:01;6.03;;;3.70;;
39848;SDS011;25518;47.878;15.914;2024-03-22T01:37:53;6.57;;;3.55;;
39848;SDS011;25518;47.878;15.914;2024-03-22T01:40:44;6.93;;;3.90;;
39848;SDS011;25518;47.878;15.914;2024-03-22T01:43:36;6.40;;;3.72;;
39848;SDS011;25518;47.878;15.914;2024-03-22T01:46:28;5.18;;;3.30;;
39848;SDS011;25518;47.878;15.914;2024-03-22T01:49:19;6.43;;;3.05;;
39848;SDS011;25518;47.878;15.914;2024-03-22T01:52:13;7.75;;;3.92;;
39848;SDS011;25518;47.878;15.914;2024-03-22T01:55:06;6.15;;;3.58;;
39848;SDS011;25518;47.878;15.914;2024-03-22T01:57:58;6.47;;;3.65;;
39848;SDS011;25518;47.878;15.914;2024-03-22T02:00:50;6.20;;;3.83;;
39848;SDS011;25518;47.878;15.914;2024-03-22T02:03:41;6.35;;;3.72;;
39848;SDS011;25518;47.878;15.914;2024-03-22T02:06:33;6.70;;;3.75;;
39848;SDS011;25518;47.878;15.914;2024-03-22T02:09:25;5.82;;;3.38;;
39848;SDS011;25518;47.878;15.914;2024-03-22T02:12:17;6.10;;;3.65;;
39848;SDS011;25518;47.878;15.914;2024-03-22T02:15:09;7.95;;;3.42;;
39848;SDS011;25518;47.878;15.914;2024-03-22T02:18:00;7.00;;;4.30;;
39848;SDS011;25518;47.878;15.914;2024-03-22T02:20:52;7.17;;;3.97;;
39848;SDS011;25518;47.878;15.914;2024-03-22T02:23:44;7.45;;;4.25;;
39848;SDS011;25518;47.878;15.914;2024-03-22T02:26:36;7.28;;;4.28;;
39848;SDS011;25518;47.878;15.914;2024-03-22T02:29:27;9.02;;;4.25;;
39848;SDS011;25518;47.878;15.914;2024-03-22T02:32:19;8.48;;;3.83;;
39848;SDS011;25518;47.878;15.914;2024-03-22T02:35:11;7.30;;;3.93;;
39848;SDS011;25518;47.878;15.914;2024-03-22T02:38:02;8.07;;;4.88;;
39848;SDS011;25518;47.878;15.914;2024-03-22T02:40:54;6.90;;;4.45;;
39848;SDS011;25518;47.878;15.914;2024-03-22T02:43:46;7.60;;;4.38;;
39848;SDS011;25518;47.878;15.914;2024-03-22T02:46:37;8.55;;;3.97;;
39848;SDS011;25518;47.878;15.914;2024-03-22T02:49:29;6.05;;;3.55;;
39848;SDS011;25518;47.878;15.914;2024-03-22T02:52:21;8.63;;;4.65;;
39848;SDS011;25518;47.878;15.914;2024-03-22T02:55:12;8.10;;;4.35;;
39848;SDS011;25518;47.878;15.914;2024-03-22T02:58:04;7.55;;;4.32;;
39848;SDS011;25518;47.878;15.914;2024-03-22T03:00:56;8.43;;;5.00;;
39848;SDS011;25518;47.878;15.914;2024-03-22T03:03:48;8.98;;;4.00;;
39848;SDS011;25518;47.878;15.914;2024-03-22T03:06:39;7.68;;;4.35;;
39848;SDS011;25518;47.878;15.914;2024-03-22T03:09:31;8.57;;;4.90;;
39848;SDS011;25518;47.878;15.914;2024-03-22T03:12:23;6.47;;;3.70;;
39848;SDS011;25518;47.878;15.914;2024-03-22T03:15:15;6.53;;;3.70;;
39848;SDS011;25518;47.878;15.914;2024-03-22T03:18:08;7.18;;;4.30;;
39848;SDS011;25518;47.878;15.914;2024-03-22T03:21:00;7.63;;;4.15;;
39848;SDS011;25518;47.878;15.914;2024-03-22T03:23:52;10.77;;;3.95;;
39848;SDS011;25518;47.878;15.914;2024-03-22T03:26:43;7.07;;;4.17;;
39848;SDS011;25518;47.878;15.914;2024-03-22T03:29:35;9.38;;;5.47;;
39848;SDS011;25518;47.878;15.914;2024-03-22T03:32:28;11.20;;;4.68;;
39848;SDS011;25518;47.878;15.914;2024-03-22T03:35:20;7.80;;;4.38;;
39848;SDS011;25518;47.878;15.914;2024-03-22T03:38:11;10.43;;;5.40;;
39848;SDS011;25518;47.878;15.914;2024-03-22T03:41:03;9.10;;;4.85;;
39848;SDS011;25518;47.878;15.914;2024-03-22T03:43:55;8.82;;;5.38;;
39848;SDS011;25518;47.878;15.914;2024-03-22T03:46:47;8.80;;;4.65;;
39848;SDS011;25518;47.878;15.914;2024-03-22T03:49:38;8.48;;;4.93;;
39848;SDS011;25518;47.878;15.914;2024-03-22T03:52:30;8.35;;;4.88;;
39848;SDS011;25518;47.878;15.914;2024-03-22T03:55:22;8.68;;;4.45;;
39848;SDS011;25518;47.878;15.914;2024-03-22T03:58:14;8.47;;;5.27;;
39848;SDS011;25518;47.878;15.914;2024-03-22T04:01:08;6.63;;;3.70;;
39848;SDS011;25518;47.878;15.914;2024-03-22T04:04:00;7.10;;;4.13;;
39848;SDS011;25518;47.878;15.914;2024-03-22T04:06:51;8.07;;;4.53;;
39848;SDS011;25518;47.878;15.914;2024-03-22T04:09:44;7.30;;;4.43;;
39848;SDS011;25518;47.878;15.914;2024-03-22T04:12:35;6.72;;;3.97;;
39848;SDS011;25518;47.878;15.914;2024-03-22T04:15:27;7.60;;;4.65;;
39848;SDS011;25518;47.878;15.914;2024-03-22T04:18:19;9.38;;;4.95;;
39848;SDS011;25518;47.878;15.914;2024-03-22T04:21:13;8.32;;;4.80;;
39848;SDS011;25518;47.878;15.914;2024-03-22T04:24:04;8.93;;;4.30;;
39848;SDS011;25518;47.878;15.914;2024-03-22T04:26:56;6.78;;;3.97;;
39848;SDS011;25518;47.878;15.914;2024-03-22T04:29:48;7.13;;;3.95;;
39848;SDS011;25518;47.878;15.914;2024-03-22T04:32:39;7.80;;;4.60;;
39848;SDS011;25518;47.878;15.914;2024-03-22T04:35:31;9.10;;;4.40;;
39848;SDS011;25518;47.878;15.914;2024-03-22T04:38:23;7.70;;;4.32;;
39848;SDS011;25518;47.878;15.914;2024-03-22T04:41:15;7.70;;;4.13;;
39848;SDS011;25518;47.878;15.914;2024-03-22T04:44:07;6.40;;;3.92;;
39848;SDS011;25518;47.878;15.914;2024-03-22T04:46:58;7.32;;;4.03;;
39848;SDS011;25518;47.878;15.914;2024-03-22T04:49:50;8.90;;;4.32;;
39848;SDS011;25518;47.878;15.914;2024-03-22T04:52:41;7.22;;;4.43;;
39848;SDS011;25518;47.878;15.914;2024-03-22T04:55:34;6.95;;;4.20;;
39848;SDS011;25518;47.878;15.914;2024-03-22T04:58:25;8.85;;;4.43;;
39848;SDS011;25518;47.878;15.914;2024-03-22T05:01:17;8.00;;;4.57;;
39848;SDS011;25518;47.878;15.914;2024-03-22T05:04:09;8.48;;;4.35;;
39848;SDS011;25518;47.878;15.914;2024-03-22T05:07:01;6.13;;;3.67;;
39848;SDS011;25518;47.878;15.914;2024-03-22T05:09:53;8.40;;;3.70;;
39848;SDS011;25518;47.878;15.914;2024-03-22T05:12:45;7.00;;;4.28;;
39848;SDS011;25518;47.878;15.914;2024-03-22T05:15:37;7.40;;;3.67;;
39848;SDS011;25518;47.878;15.914;2024-03-22T05:18:28;7.67;;;3.80;;
39848;SDS011;25518;47.878;15.914;2024-03-22T05:21:20;7.00;;;3.95;;
39848;SDS011;25518;47.878;15.914;2024-03-22T05:24:12;6.80;;;3.72;;
39848;SDS011;25518;47.878;15.914;2024-03-22T05:27:03;6.80;;;3.88;;
39848;SDS011;25518;47.878;15.914;2024-03-22T05:29:55;6.78;;;3.85;;
39848;SDS011;25518;47.878;15.914;2024-03-22T05:32:47;7.57;;;3.58;;
39848;SDS011;25518;47.878;15.914;2024-03-22T05:35:40;6.45;;;3.75;;
39848;SDS011;25518;47.878;15.914;2024-03-22T05:38:32;7.18;;;3.85;;
39848;SDS011;25518;47.878;15.914;2024-03-22T05:41:26;8.38;;;4.50;;
39848;SDS011;25518;47.878;15.914;2024-03-22T05:44:18;7.95;;;3.88;;
39848;SDS011;25518;47.878;15.914;2024-03-22T05:47:10;5.95;;;3.30;;
39848;SDS011;25518;47.878;15.914;2024-03-22T05:50:01;5.47;;;3.28;;
39848;SDS011;25518;47.878;15.914;2024-03-22T05:52:53;4.75;;;2.75;;
39848;SDS011;25518;47.878;15.914;2024-03-22T05:55:45;6.82;;;2.95;;
39848;SDS011;25518;47.878;15.914;2024-03-22T05:58:36;4.57;;;2.63;;
39848;SDS011;25518;47.878;15.914;2024-03-22T06:01:28;4.43;;;2.83;;
39848;SDS011;25518;47.878;15.914;2024-03-22T06:04:20;4.28;;;2.38;;
39848;SDS011;25518;47.878;15.914;2024-03-22T06:07:11;4.70;;;2.55;;
39848;SDS011;25518;47.878;15.914;2024-03-22T06:10:05;7.35;;;3.92;;
39848;SDS011;25518;47.878;15.914;2024-03-22T06:12:57;7.27;;;3.13;;
39848;SDS011;25518;47.878;15.914;2024-03-22T06:15:49;5.25;;;3.08;;
39848;SDS011;25518;47.878;15.914;2024-03-22T06:18:40;5.55;;;2.58;;
39848;SDS011;25518;47.878;15.914;2024-03-22T06:21:32;5.07;;;2.70;;
39848;SDS011;25518;47.878;15.914;2024-03-22T06:24:23;4.28;;;2.25;;
39848;SDS011;25518;47.878;15.914;2024-03-22T06:27:16;7.13;;;2.50;;
39848;SDS011;25518;47.878;15.914;2024-03-22T06:30:08;3.90;;;2.20;;
39848;SDS011;25518;47.878;15.914;2024-03-22T06:33:00;6.28;;;2.47;;
39848;SDS011;25518;47.878;15.914;2024-03-22T06:35:52;5.80;;;2.55;;
39848;SDS011;25518;47.878;15.914;2024-03-22T06:38:43;6.03;;;2.73;;
39848;SDS011;25518;47.878;15.914;2024-03-22T06:41:35;5.10;;;2.40;;
39848;SDS011;25518;47.878;15.914;2024-03-22T06:44:27;5.82;;;3.72;;
39848;SDS011;25518;47.878;15.914;2024-03-22T06:47:18;8.32;;;3.53;;
39848;SDS011;25518;47.878;15.914;2024-03-22T06:50:11;8.30;;;4.82;;
39848;SDS011;25518;47.878;15.914;2024-03-22T06:53:03;11.00;;;3.95;;
39848;SDS011;25518;47.878;15.914;2024-03-22T06:55:54;7.97;;;4.67;;
39848;SDS011;25518;47.878;15.914;2024-03-22T06:58:46;9.35;;;4.80;;
39848;SDS011;25518;47.878;15.914;2024-03-22T07:01:38;8.63;;;4.30;;
39848;SDS011;25518;47.878;15.914;2024-03-22T07:04:30;8.52;;;4.50;;
39848;SDS011;25518;47.878;15.914;2024-03-22T07:07:21;9.45;;;5.10;;
39848;SDS011;25518;47.878;15.914;2024-03-22T07:10:13;8.75;;;5.20;;
39848;SDS011;25518;47.878;15.914;2024-03-22T07:13:07;9.48;;;4.60;;
39848;SDS011;25518;47.878;15.914;2024-03-22T07:15:58;10.70;;;5.35;;
39848;SDS011;25518;47.878;15.914;2024-03-22T07:18:50;8.27;;;5.03;;
39848;SDS011;25518;47.878;15.914;2024-03-22T07:21:42;10.18;;;5.20;;
39848;SDS011;25518;47.878;15.914;2024-03-22T07:24:33;9.13;;;5.10;;
39848;SDS011;25518;47.878;15.914;2024-03-22T07:27:25;9.98;;;5.35;;
39848;SDS011;25518;47.878;15.914;2024-03-22T07:30:20;10.43;;;5.90;;
39848;SDS011;25518;47.878;15.914;2024-03-22T07:33:11;10.10;;;5.17;;
39848;SDS011;25518;47.878;15.914;2024-03-22T07:36:07;10.10;;;5.10;;
39848;SDS011;25518;47.878;15.914;2024-03-22T07:38:58;10.47;;;4.73;;
39848;SDS011;25518;47.878;15.914;2024-03-22T07:41:51;8.38;;;4.88;;
39848;SDS011;25518;47.878;15.914;2024-03-22T07:44:42;9.02;;;4.85;;
39848;SDS011;25518;47.878;15.914;2024-03-22T07:47:34;9.25;;;4.72;;
39848;SDS011;25518;47.878;15.914;2024-03-22T07:50:26;8.35;;;4.45;;
39848;SDS011;25518;47.878;15.914;2024-03-22T07:53:18;8.38;;;5.05;;
39848;SDS011;25518;47.878;15.914;2024-03-22T07:56:09;7.45;;;4.05;;
39848;SDS011;25518;47.878;15.914;2024-03-22T07:59:01;9.60;;;4.28;;
39848;SDS011;25518;47.878;15.914;2024-03-22T08:01:53;8.07;;;4.50;;
39848;SDS011;25518;47.878;15.914;2024-03-22T08:04:44;7.73;;;4.10;;
39848;SDS011;25518;47.878;15.914;2024-03-22T08:07:36;6.67;;;3.80;;
39848;SDS011;25518;47.878;15.914;2024-03-22T08:10:28;8.63;;;4.30;;
39848;SDS011;25518;47.878;15.914;2024-03-22T08:13:20;9.60;;;4.57;;
39848;SDS011;25518;47.878;15.914;2024-03-22T08:16:11;7.45;;;4.03;;
39848;SDS011;25518;47.878;15.914;2024-03-22T08:19:03;6.57;;;3.75;;
39848;SDS011;25518;47.878;15.914;2024-03-22T08:21:55;8.00;;;4.25;;
39848;SDS011;25518;47.878;15.914;2024-03-22T08:24:46;7.38;;;4.00;;
39848;SDS011;25518;47.878;15.914;2024-03-22T08:27:38;6.67;;;3.73;;
39848;SDS011;25518;47.878;15.914;2024-03-22T08:30:30;8.17;;;4.07;;
39848;SDS011;25518;47.878;15.914;2024-03-22T08:33:22;7.07;;;3.47;;
39848;SDS011;25518;47.878;15.914;2024-03-22T08:36:13;6.60;;;3.38;;
39848;SDS011;25518;47.878;15.914;2024-03-22T08:39:05;7.72;;;3.85;;
39848;SDS011;25518;47.878;15.914;2024-03-22T08:42:00;6.83;;;3.67;;
39848;SDS011;25518;47.878;15.914;2024-03-22T08:44:52;7.25;;;3.72;;
39848;SDS011;25518;47.878;15.914;2024-03-22T08:47:44;6.13;;;2.70;;
39848;SDS011;25518;47.878;15.914;2024-03-22T08:50:36;9.30;;;3.63;;
39848;SDS011;25518;47.878;15.914;2024-03-22T08:53:28;6.47;;;3.30;;
39848;SDS011;25518;47.878;15.914;2024-03-22T08:56:19;5.05;;;2.58;;
39848;SDS011;25518;47.878;15.914;2024-03-22T08:59:11;6.50;;;3.03;;
39848;SDS011;25518;47.878;15.914;2024-03-22T09:02:03;6.82;;;3.33;;
39848;SDS011;25518;47.878;15.914;2024-03-22T09:04:54;6.25;;;3.42;;
39848;SDS011;25518;47.878;15.914;2024-03-22T09:07:46;5.68;;;3.28;;
39848;SDS011;25518;47.878;15.914;2024-03-22T09:10:38;6.75;;;3.13;;
39848;SDS011;25518;47.878;15.914;2024-03-22T09:13:30;5.70;;;2.90;;
39848;SDS011;25518;47.878;15.914;2024-03-22T09:16:24;6.57;;;3.00;;
39848;SDS011;25518;47.878;15.914;2024-03-22T09:19:16;6.43;;;3.40;;
39848;SDS011;25518;47.878;15.914;2024-03-22T09:22:08;7.55;;;3.95;;
39848;SDS011;25518;47.878;15.914;2024-03-22T09:25:00;6.20;;;3.58;;
39848;SDS011;25518;47.878;15.914;2024-03-22T09:27:51;7.53;;;3.15;;
39848;SDS011;25518;47.878;15.914;2024-03-22T09:30:45;5.72;;;3.00;;
39848;SDS011;25518;47.878;15.914;2024-03-22T09:33:38;7.43;;;3.00;;
39848;SDS011;25518;47.878;15.914;2024-03-22T09:36:29;5.57;;;2.57;;
39848;SDS011;25518;47.878;15.914;2024-03-22T09:39:25;5.65;;;2.80;;
39848;SDS011;25518;47.878;15.914;2024-03-22T09:42:18;5.28;;;2.65;;
39848;SDS011;25518;47.878;15.914;2024-03-22T09:45:09;4.87;;;2.10;;
39848;SDS011;25518;47.878;15.914;2024-03-22T09:48:01;5.75;;;2.83;;
39848;SDS011;25518;47.878;15.914;2024-03-22T09:50:53;5.93;;;2.88;;
39848;SDS011;25518;47.878;15.914;2024-03-22T09:53:45;5.25;;;2.47;;
39848;SDS011;25518;47.878;15.914;2024-03-22T09:56:40;5.60;;;2.67;;
39848;SDS011;25518;47.878;15.914;2024-03-22T09:59:33;5.20;;;2.33;;
39848;SDS011;25518;47.878;15.914;2024-03-22T10:02:25;5.57;;;2.53;;
39848;SDS011;25518;47.878;15.914;2024-03-22T10:05:18;4.57;;;2.30;;
39848;SDS011;25518;47.878;15.914;2024-03-22T10:08:09;5.70;;;2.22;;
39848;SDS011;25518;47.878;15.914;2024-03-22T10:11:01;6.20;;;2.17;;
39848;SDS011;25518;47.878;15.914;2024-03-22T10:13:53;3.93;;;1.70;;
39848;SDS011;25518;47.878;15.914;2024-03-22T10:16:47;5.07;;;1.70;;
39848;SDS011;25518;47.878;15.914;2024-03-22T10:19:39;4.53;;;2.30;;
39848;SDS011;25518;47.878;15.914;2024-03-22T10:22:31;5.03;;;2.00;;
39848;SDS011;25518;47.878;15.914;2024-03-22T10:25:23;4.78;;;2.00;;
39848;SDS011;25518;47.878;15.914;2024-03-22T10:28:15;5.05;;;2.10;;
39848;SDS011;25518;47.878;15.914;2024-03-22T10:31:06;3.87;;;1.50;;
39848;SDS011;25518;47.878;15.914;2024-03-22T10:33:58;3.42;;;1.73;;
39848;SDS011;25518;47.878;15.914;2024-03-22T10:36:50;3.33;;;1.50;;
39848;SDS011;25518;47.878;15.914;2024-03-22T10:39:43;5.72;;;1.95;;
39848;SDS011;25518;47.878;15.914;2024-03-22T10:42:36;3.05;;;1.60;;
39848;SDS011;25518;47.878;15.914;2024-03-22T10:45:27;3.83;;;1.67;;
39848;SDS011;25518;47.878;15.914;2024-03-22T10:48:20;3.88;;;1.55;;
39848;SDS011;25518;47.878;15.914;2024-03-22T10:51:13;3.15;;;1.70;;
39848;SDS011;25518;47.878;15.914;2024-03-22T10:54:05;3.13;;;1.60;;
39848;SDS011;25518;47.878;15.914;2024-03-22T10:56:58;3.42;;;1.45;;
39848;SDS011;25518;47.878;15.914;2024-03-22T10:59:49;3.50;;;1.48;;
39848;SDS011;25518;47.878;15.914;2024-03-22T11:02:46;3.97;;;1.95;;
39848;SDS011;25518;47.878;15.914;2024-03-22T11:05:46;4.07;;;1.60;;
39848;SDS011;25518;47.878;15.914;2024-03-22T11:08:37;4.47;;;1.63;;
39848;SDS011;25518;47.878;15.914;2024-03-22T11:11:29;2.47;;;1.50;;
39848;SDS011;25518;47.878;15.914;2024-03-22T11:14:22;3.60;;;2.00;;
39848;SDS011;25518;47.878;15.914;2024-03-22T11:17:15;3.05;;;1.50;;
39848;SDS011;25518;47.878;15.914;2024-03-22T11:20:06;2.22;;;1.20;;
39848;SDS011;25518;47.878;15.914;2024-03-22T11:22:58;2.80;;;1.30;;
39848;SDS011;25518;47.878;15.914;2024-03-22T11:25:50;2.75;;;1.38;;
39848;SDS011;25518;47.878;15.914;2024-03-22T11:28:42;3.30;;;1.60;;
39848;SDS011;25518;47.878;15.914;2024-03-22T11:31:33;2.08;;;1.00;;
39848;SDS011;25518;47.878;15.914;2024-03-22T11:34:25;3.23;;;1.57;;
39848;SDS011;25518;47.878;15.914;2024-03-22T11:37:17;3.42;;;1.38;;
39848;SDS011;25518;47.878;15.914;2024-03-22T11:40:09;4.03;;;1.40;;
39848;SDS011;25518;47.878;15.914;2024-03-22T11:43:01;3.45;;;1.38;;
39848;SDS011;25518;47.878;15.914;2024-03-22T11:45:53;3.05;;;1.42;;
39848;SDS011;25518;47.878;15.914;2024-03-22T11:48:45;3.03;;;1.50;;
39848;SDS011;25518;47.878;15.914;2024-03-22T11:51:41;4.33;;;1.43;;
39848;SDS011;25518;47.878;15.914;2024-03-22T11:54:33;3.15;;;1.60;;
39848;SDS011;25518;47.878;15.914;2024-03-22T11:57:25;2.58;;;1.15;;
39848;SDS011;25518;47.878;15.914;2024-03-22T12:00:17;2.40;;;1.30;;
39848;SDS011;25518;47.878;15.914;2024-03-22T12:03:09;2.38;;;1.15;;
39848;SDS011;25518;47.878;15.914;2024-03-22T12:06:01;3.50;;;1.20;;
39848;SDS011;25518;47.878;15.914;2024-03-22T12:08:52;2.42;;;1.30;;
39848;SDS011;25518;47.878;15.914;2024-03-22T12:11:44;3.92;;;1.60;;
39848;SDS011;25518;47.878;15.914;2024-03-22T12:14:36;3.15;;;1.20;;
39848;SDS011;25518;47.878;15.914;2024-03-22T12:17:27;2.42;;;1.02;;
39848;SDS011;25518;47.878;15.914;2024-03-22T12:20:19;3.22;;;1.00;;
39848;SDS011;25518;47.878;15.914;2024-03-22T12:23:12;3.25;;;1.40;;
39848;SDS011;25518;47.878;15.914;2024-03-22T12:26:04;4.82;;;1.27;;
39848;SDS011;25518;47.878;15.914;2024-03-22T12:28:57;4.35;;;1.15;;
39848;SDS011;25518;47.878;15.914;2024-03-22T12:31:49;2.85;;;1.00;;
39848;SDS011;25518;47.878;15.914;2024-03-22T12:34:41;1.57;;;0.90;;
39848;SDS011;25518;47.878;15.914;2024-03-22T12:37:33;3.00;;;1.27;;
39848;SDS011;25518;47.878;15.914;2024-03-22T12:40:26;2.47;;;1.23;;
39848;SDS011;25518;47.878;15.914;2024-03-22T12:43:18;2.17;;;1.00;;
39848;SDS011;25518;47.878;15.914;2024-03-22T12:46:10;2.63;;;1.00;;
39848;SDS011;25518;47.878;15.914;2024-03-22T12:49:02;2.83;;;1.20;;
39848;SDS011;25518;47.878;15.914;2024-03-22T12:51:53;2.72;;;1.45;;
39848;SDS011;25518;47.878;15.914;2024-03-22T12:54:47;2.13;;;1.13;;
39848;SDS011;25518;47.878;15.914;2024-03-22T12:57:39;2.22;;;1.05;;
39848;SDS011;25518;47.878;15.914;2024-03-22T13:00:30;2.28;;;1.20;;
39848;SDS011;25518;47.878;15.914;2024-03-22T13:03:24;3.50;;;1.17;;
39848;SDS011;25518;47.878;15.914;2024-03-22T13:06:15;2.25;;;1.00;;
39848;SDS011;25518;47.878;15.914;2024-03-22T13:09:07;3.85;;;1.25;;
39848;SDS011;25518;47.878;15.914;2024-03-22T13:12:00;3.55;;;1.35;;
39848;SDS011;25518;47.878;15.914;2024-03-22T13:14:51;2.60;;;1.30;;
39848;SDS011;25518;47.878;15.914;2024-03-22T13:17:43;2.28;;;1.15;;
39848;SDS011;25518;47.878;15.914;2024-03-22T13:20:35;3.90;;;1.42;;
39848;SDS011;25518;47.878;15.914;2024-03-22T13:23:26;3.00;;;1.38;;
39848;SDS011;25518;47.878;15.914;2024-03-22T13:26:18;3.00;;;1.38;;
39848;SDS011;25518;47.878;15.914;2024-03-22T13:29:10;3.47;;;1.30;;
39848;SDS011;25518;47.878;15.914;2024-03-22T13:32:04;2.37;;;1.13;;
39848;SDS011;25518;47.878;15.914;2024-03-22T13:34:57;3.70;;;1.52;;
39848;SDS011;25518;47.878;15.914;2024-03-22T13:37:49;4.60;;;1.60;;
39848;SDS011;25518;47.878;15.914;2024-03-22T13:40:40;2.70;;;1.25;;
39848;SDS011;25518;47.878;15.914;2024-03-22T13:43:32;2.50;;;1.30;;
39848;SDS011;25518;47.878;15.914;2024-03-22T13:46:24;4.05;;;1.40;;
39848;SDS011;25518;47.878;15.914;2024-03-22T13:49:17;4.13;;;1.50;;
39848;SDS011;25518;47.878;15.914;2024-03-22T13:52:10;2.75;;;1.40;;
39848;SDS011;25518;47.878;15.914;2024-03-22T13:55:02;3.30;;;1.50;;
39848;SDS011;25518;47.878;15.914;2024-03-22T13:57:55;2.80;;;1.40;;
39848;SDS011;25518;47.878;15.914;2024-03-22T14:00:46;1.70;;;1.20;;
39848;SDS011;25518;47.878;15.914;2024-03-22T14:03:38;2.25;;;1.23;;
39848;SDS011;25518;47.878;15.914;2024-03-22T14:06:30;2.67;;;1.20;;
39848;SDS011;25518;47.878;15.914;2024-03-22T14:09:22;2.78;;;1.30;;
39848;SDS011;25518;47.878;15.914;2024-03-22T14:12:14;3.53;;;1.38;;
39848;SDS011;25518;47.878;15.914;2024-03-22T14:15:06;2.58;;;1.30;;
39848;SDS011;25518;47.878;15.914;2024-03-22T14:17:58;2.47;;;1.20;;
39848;SDS011;25518;47.878;15.914;2024-03-22T14:20:49;2.30;;;1.17;;
39848;SDS011;25518;47.878;15.914;2024-03-22T14:23:41;3.37;;;1.30;;
39848;SDS011;25518;47.878;15.914;2024-03-22T14:26:32;2.50;;;1.23;;
39848;SDS011;25518;47.878;15.914;2024-03-22T14:29:24;4.38;;;1.33;;
39848;SDS011;25518;47.878;15.914;2024-03-22T14:32:16;3.65;;;1.73;;
39848;SDS011;25518;47.878;15.914;2024-03-22T14:35:08;2.38;;;1.05;;
39848;SDS011;25518;47.878;15.914;2024-03-22T14:37:59;2.08;;;1.10;;
39848;SDS011;25518;47.878;15.914;2024-03-22T14:40:51;2.88;;;1.33;;
39848;SDS011;25518;47.878;15.914;2024-03-22T14:43:43;1.70;;;1.10;;
39848;SDS011;25518;47.878;15.914;2024-03-22T14:46:35;2.30;;;1.30;;
39848;SDS011;25518;47.878;15.914;2024-03-22T14:49:26;2.53;;;1.15;;
39848;SDS011;25518;47.878;15.914;2024-03-22T14:52:18;2.63;;;1.13;;
39848;SDS011;25518;47.878;15.914;2024-03-22T14:55:12;2.97;;;1.42;;
39848;SDS011;25518;47.878;15.914;2024-03-22T14:58:04;2.03;;;1.25;;
39848;SDS011;25518;47.878;15.914;2024-03-22T15:00:57;3.67;;;1.20;;
39848;SDS011;25518;47.878;15.914;2024-03-22T15:03:50;2.53;;;1.30;;
39848;SDS011;25518;47.878;15.914;2024-03-22T15:06:42;2.70;;;1.20;;
39848;SDS011;25518;47.878;15.914;2024-03-22T15:09:35;2.80;;;1.30;;
39848;SDS011;25518;47.878;15.914;2024-03-22T15:12:26;1.83;;;1.20;;
39848;SDS011;25518;47.878;15.914;2024-03-22T15:15:18;3.60;;;1.40;;
39848;SDS011;25518;47.878;15.914;2024-03-22T15:18:11;2.83;;;1.65;;
39848;SDS011;25518;47.878;15.914;2024-03-22T15:21:02;2.10;;;1.35;;
39848;SDS011;25518;47.878;15.914;2024-03-22T15:23:54;3.00;;;1.48;;
39848;SDS011;25518;47.878;15.914;2024-03-22T15:26:48;2.90;;;1.50;;
39848;SDS011;25518;47.878;15.914;2024-03-22T15:29:39;3.35;;;1.40;;
39848;SDS011;25518;47.878;15.914;2024-03-22T15:32:31;2.70;;;1.33;;
39848;SDS011;25518;47.878;15.914;2024-03-22T15:35:23;2.77;;;1.20;;
39848;SDS011;25518;47.878;15.914;2024-03-22T15:38:14;1.88;;;1.15;;
39848;SDS011;25518;47.878;15.914;2024-03-22T15:41:06;3.03;;;1.20;;
39848;SDS011;25518;47.878;15.914;2024-03-22T15:43:58;2.70;;;1.40;;
39848;SDS011;25518;47.878;15.914;2024-03-22T15:46:49;3.22;;;2.00;;
39848;SDS011;25518;47.878;15.914;2024-03-22T15:49:41;3.75;;;1.40;;
39848;SDS011;25518;47.878;15.914;2024-03-22T15:52:33;3.93;;;1.60;;
39848;SDS011;25518;47.878;15.914;2024-03-22T15:55:25;2.80;;;1.50;;
39848;SDS011;25518;47.878;15.914;2024-03-22T15:58:21;2.25;;;1.20;;
39848;SDS011;25518;47.878;15.914;2024-03-22T16:01:13;3.40;;;1.83;;
39848;SDS011;25518;47.878;15.914;2024-03-22T16:04:04;5.38;;;1.90;;
39848;SDS011;25518;47.878;15.914;2024-03-22T16:06:58;3.50;;;1.57;;
39848;SDS011;25518;47.878;15.914;2024-03-22T16:09:50;2.88;;;1.33;;
39848;SDS011;25518;47.878;15.914;2024-03-22T16:12:41;2.90;;;1.20;;
39848;SDS011;25518;47.878;15.914;2024-03-22T16:15:33;3.42;;;1.75;;
39848;SDS011;25518;47.878;15.914;2024-03-22T16:18:25;2.50;;;1.38;;
39848;SDS011;25518;47.878;15.914;2024-03-22T16:21:16;2.63;;;1.50;;
39848;SDS011;25518;47.878;15.914;2024-03-22T16:24:08;2.78;;;1.48;;
39848;SDS011;25518;47.878;15.914;2024-03-22T16:27:01;2.78;;;1.20;;
39848;SDS011;25518;47.878;15.914;2024-03-22T16:29:52;2.15;;;1.13;;
39848;SDS011;25518;47.878;15.914;2024-03-22T16:32:44;2.53;;;1.17;;
39848;SDS011;25518;47.878;15.914;2024-03-22T16:35:35;3.17;;;1.23;;
39848;SDS011;25518;47.878;15.914;2024-03-22T16:38:27;3.20;;;1.42;;
39848;SDS011;25518;47.878;15.914;2024-03-22T16:41:19;2.67;;;1.37;;
39848;SDS011;25518;47.878;15.914;2024-03-22T16:44:10;2.97;;;1.55;;
39848;SDS011;25518;47.878;15.914;2024-03-22T16:47:06;2.80;;;1.30;;
39848;SDS011;25518;47.878;15.914;2024-03-22T16:49:57;2.38;;;1.40;;
39848;SDS011;25518;47.878;15.914;2024-03-22T16:52:49;3.70;;;1.40;;
39848;SDS011;25518;47.878;15.914;2024-03-22T16:55:41;2.30;;;1.48;;
39848;SDS011;25518;47.878;15.914;2024-03-22T16:58:34;4.00;;;1.50;;